Time;durP1;ratioP1;P1;durP2;ratioP2;P2;SDS_P1;SDS_P2;PMS_P1;PMS_P2;Temp;Humidity;BMP_temperature;BMP_pressure;BME280_temperature;BME280_humidity;BME280_pressure;Samples;Min_cycle;Max_cycle;Signal;HPM_P1;HPM_P2
2023/01/05 00:01:10;;;;;;;14.18;2.83;;;;;;;12.99;100.00;101162.47;5056118;28;20037;-74
2023/01/05 00:03:37;;;;;;;30.80;5.32;;;;;;;13.06;100.00;101180.28;5055022;28;20067;-73
2023/01/05 00:06:10;;;;;;;22.58;5.45;;;;;;;13.00;100.00;101169.59;5059241;28;20147;-74
2023/01/05 00:08:37;;;;;;;24.15;6.15;;;;;;;13.10;100.00;101170.75;5049697;28;20556;-75
2023/01/05 00:22:32;;;;;;;25.80;5.00;;;;;;;13.01;100.00;101170.38;5052784;28;20044;-74
2023/01/05 00:25:16;;;;;;;6.65;1.98;;;;;;;12.98;100.00;101173.94;5054433;28;20051;-74
2023/01/05 00:27:45;;;;;;;21.45;3.95;;;;;;;12.89;100.00;101176.34;5054509;28;20059;-74
2023/01/05 00:30:14;;;;;;;24.58;4.47;;;;;;;12.97;100.00;101183.47;5053487;28;20040;-72
2023/01/05 00:32:41;;;;;;;21.80;4.20;;;;;;;12.87;100.00;101176.72;5052943;28;20902;-72
2023/01/05 00:35:10;;;;;;;16.10;3.15;;;;;;;12.80;100.00;101181.53;5050014;28;20055;-73
2023/01/05 00:37:37;;;;;;;19.17;4.97;;;;;;;12.68;100.00;101195.84;5051991;28;20052;-73
2023/01/05 00:40:11;;;;;;;28.60;5.00;;;;;;;12.87;100.00;101189.84;5062013;28;20040;-75
2023/01/05 00:42:37;;;;;;;16.02;3.50;;;;;;;12.74;100.00;101191.47;5049012;28;20052;-75
2023/01/05 00:45:06;;;;;;;18.65;4.22;;;;;;;12.79;100.00;101182.72;5055169;28;20044;-74
2023/01/05 00:47:32;;;;;;;21.35;3.80;;;;;;;12.69;100.00;101172.47;5052539;28;20055;-73
2023/01/05 00:49:59;;;;;;;18.90;3.70;;;;;;;12.65;100.00;101191.88;5056147;28;20823;-74
2023/01/05 00:52:26;;;;;;;16.20;3.42;;;;;;;12.65;100.00;101205.75;5067647;28;20055;-75
2023/01/05 00:54:52;;;;;;;21.73;5.63;;;;;;;12.69;100.00;101189.88;5067729;28;20052;-72
2023/01/05 00:57:18;;;;;;;10.80;3.17;;;;;;;12.60;100.00;101213.72;5067701;28;20055;-74
2023/01/05 00:59:45;;;;;;;34.58;5.45;;;;;;;12.58;100.00;101203.00;5067760;28;20036;-72
2023/01/05 01:02:13;;;;;;;24.35;3.63;;;;;;;12.58;100.00;101216.09;5070711;28;20040;-73
2023/01/05 01:04:39;;;;;;;15.32;3.78;;;;;;;12.61;100.00;101204.19;5072360;28;20052;-72
2023/01/05 01:07:06;;;;;;;24.48;5.05;;;;;;;12.58;100.00;101197.44;5074630;28;20062;-73
2023/01/05 01:09:33;;;;;;;34.42;5.88;;;;;;;12.49;100.00;101210.94;5078444;28;20056;-74
2023/01/05 01:12:00;;;;;;;21.55;2.88;;;;;;;12.56;100.00;101196.28;5069171;28;20050;-74
2023/01/05 01:14:27;;;;;;;10.55;2.85;;;;;;;12.56;100.00;101190.72;5067227;28;20078;-74
2023/01/05 01:16:53;;;;;;;12.85;2.15;;;;;;;12.64;100.00;101195.84;5068538;28;20137;-73
2023/01/05 01:19:22;;;;;;;15.38;2.88;;;;;;;12.57;100.00;101200.63;5073184;28;20090;-73
2023/01/05 01:21:49;;;;;;;24.70;4.95;;;;;;;12.48;100.00;101195.47;5074010;28;20044;-74
2023/01/05 01:24:24;;;;;;;14.15;4.00;;;;;;;12.47;100.00;101199.47;5068051;28;20040;-74
2023/01/05 01:26:51;;;;;;;18.13;3.83;;;;;;;12.57;100.00;101187.53;5068835;28;20048;-73
2023/01/05 01:29:18;;;;;;;19.33;3.40;;;;;;;12.55;100.00;101192.69;5068352;28;20052;-74
2023/01/05 01:31:50;;;;;;;15.95;2.97;;;;;;;12.54;100.00;101198.66;5068330;28;20475;-73
2023/01/05 01:34:17;;;;;;;29.98;7.28;;;;;;;12.53;100.00;101199.84;5068709;28;20047;-76
2023/01/05 01:36:44;;;;;;;24.63;3.42;;;;;;;12.45;100.00;101206.56;5074680;28;20052;-74
2023/01/05 01:39:11;;;;;;;19.67;3.67;;;;;;;12.50;100.00;101217.28;5069572;28;20593;-75
2023/01/05 01:41:38;;;;;;;22.35;4.57;;;;;;;12.45;100.00;101212.13;5067207;28;20752;-72
2023/01/05 01:44:42;;;;;;;18.52;3.33;;;;;;;12.48;100.00;101223.25;5068473;28;20044;-72
2023/01/05 01:47:14;;;;;;;24.27;5.07;;;;;;;12.51;100.00;101210.53;5068143;28;20042;-73
2023/01/05 01:49:41;;;;;;;17.73;3.92;;;;;;;12.44;100.00;101219.69;5075789;28;20048;-73
2023/01/05 01:52:08;;;;;;;31.63;5.30;;;;;;;12.50;100.00;101231.97;5067234;28;20834;-74
2023/01/05 01:54:35;;;;;;;19.58;3.63;;;;;;;12.41;100.00;101239.09;5068463;28;20087;-73
2023/01/05 01:57:03;;;;;;;23.92;4.32;;;;;;;12.46;100.00;101238.72;5071614;28;20490;-73
2023/01/05 01:59:30;;;;;;;24.95;4.47;;;;;;;12.52;100.00;101234.34;5072125;28;20048;-75
2023/01/05 02:02:00;;;;;;;20.08;3.70;;;;;;;12.46;100.00;101242.25;5075137;28;20040;-73
2023/01/05 02:04:31;;;;;;;8.65;1.17;;;;;;;12.46;100.00;101233.94;5067561;28;20048;-73
2023/01/05 02:06:59;;;;;;;31.27;5.32;;;;;;;12.48;100.00;101239.09;5068966;28;20090;-72
2023/01/05 02:09:26;;;;;;;14.80;4.60;;;;;;;12.40;100.00;101246.66;5077108;28;20494;-73
2023/01/05 02:12:04;;;;;;;7.10;2.13;;;;;;;12.39;100.00;101247.03;5079940;28;20105;-73
2023/01/05 02:14:43;;;;;;;14.15;3.17;;;;;;;12.36;100.00;101256.16;5078884;28;20055;-74
2023/01/05 02:17:54;;;;;;;11.73;3.35;;;;;;;12.36;100.00;101243.06;5073165;28;20058;-74
2023/01/05 02:20:26;;;;;;;10.32;2.72;;;;;;;12.39;100.00;101241.50;5066091;28;20048;-74
2023/01/05 02:23:17;;;;;;;14.60;3.00;;;;;;;12.44;100.00;101239.09;5074154;28;20048;-73
2023/01/05 02:26:11;;;;;;;14.02;3.50;;;;;;;12.39;100.00;101245.03;5066662;28;20064;-72
2023/01/05 02:29:00;;;;;;;12.90;3.20;;;;;;;12.35;100.00;101249.81;5075566;28;20439;-73
2023/01/05 02:31:39;;;;;;;19.67;4.55;;;;;;;12.36;100.00;101251.38;5072057;28;20051;-73
2023/01/05 02:34:45;;;;;;;21.10;3.20;;;;;;;12.37;100.00;101247.44;5078310;28;20057;-74
2023/01/05 02:37:31;;;;;;;18.80;3.20;;;;;;;12.29;100.00;101256.94;5055581;28;20045;-72
2023/01/05 02:40:20;;;;;;;28.15;5.50;;;;;;;12.37;100.00;101247.44;5068895;28;20048;-73
2023/01/05 02:42:51;;;;;;;20.17;3.70;;;;;;;12.30;100.00;101263.28;5067049;28;20490;-75
2023/01/05 02:45:17;;;;;;;29.75;3.60;;;;;;;12.24;100.00;101259.31;5068599;28;20421;-73
2023/01/05 02:47:44;;;;;;;22.95;4.68;;;;;;;12.33;100.00;101260.53;5073649;28;20530;-73
2023/01/05 02:50:35;;;;;;;29.90;4.47;;;;;;;12.32;100.00;101258.91;5067472;28;20052;-72
2023/01/05 02:53:12;;;;;;;13.65;3.33;;;;;;;12.28;100.00;101246.22;5072223;28;20069;-74
2023/01/05 02:55:46;;;;;;;20.40;3.17;;;;;;;12.27;100.00;101252.97;5072878;28;20044;-74
2023/01/05 02:58:30;;;;;;;13.70;3.85;;;;;;;12.30;100.00;101252.97;5075180;28;20487;-75
2023/01/05 03:01:02;;;;;;;17.83;2.60;;;;;;;12.31;100.00;101239.88;5071399;28;20047;-73
2023/01/05 03:03:41;;;;;;;18.90;3.20;;;;;;;12.29;100.00;101267.25;5070864;28;20067;-72
2023/01/05 03:06:32;;;;;;;21.40;4.65;;;;;;;12.25;100.00;101244.28;5070998;28;20501;-74
2023/01/05 03:09:02;;;;;;;32.53;5.50;;;;;;;12.38;100.00;101249.00;5079543;28;20044;-72
2023/01/05 03:14:31;;;;;;;20.85;3.67;;;;;;;12.32;100.00;101255.38;5074742;28;20148;-75
2023/01/05 03:17:00;;;;;;;11.63;2.75;;;;;;;12.26;100.00;101256.94;5076379;28;20044;-74
2023/01/05 03:19:35;;;;;;;6.72;1.80;;;;;;;12.22;100.00;101245.06;5073745;28;20040;-74
2023/01/05 03:36:46;;;;;;;9.07;1.67;;;;;;;11.93;100.00;101254.53;5072028;28;20047;-74
2023/01/05 03:39:15;;;;;;;38.28;6.68;;;;;;;11.99;100.00;101247.41;5083146;28;20695;-72
2023/01/05 03:41:41;;;;;;;14.85;3.70;;;;;;;11.83;100.00;101253.31;5070896;28;20045;-72
2023/01/05 03:44:08;;;;;;;8.88;1.85;;;;;;;11.86;100.00;101262.81;5084202;28;20409;-72
2023/01/05 03:46:35;;;;;;;21.88;4.22;;;;;;;11.90;100.00;101263.63;5071405;28;20052;-74
2023/01/05 03:49:02;;;;;;;24.60;4.85;;;;;;;11.76;100.00;101296.84;5070765;28;20106;-72
2023/01/05 03:51:28;;;;;;;24.13;3.70;;;;;;;11.79;100.00;101274.69;5070247;28;20039;-73
2023/01/05 03:53:55;;;;;;;17.30;3.45;;;;;;;11.81;100.00;101269.53;5069712;28;20127;-72
2023/01/05 03:56:21;;;;;;;26.40;4.60;;;;;;;11.69;100.00;101282.97;5070059;28;20460;-73
2023/01/05 03:58:48;;;;;;;16.45;3.38;;;;;;;11.67;100.00;101274.25;5085714;28;20135;-74
2023/01/05 04:01:14;;;;;;;27.50;6.10;;;;;;;11.60;100.00;101285.28;5071613;28;20482;-72
2023/01/05 04:03:41;;;;;;;13.23;2.53;;;;;;;11.67;100.00;101272.28;5069916;28;20053;-72
2023/01/05 04:06:07;;;;;;;12.13;3.25;;;;;;;11.62;100.00;101272.66;5069683;28;20041;-72
2023/01/05 04:08:34;;;;;;;22.02;3.63;;;;;;;11.57;100.00;101277.75;5068844;28;20082;-72
2023/01/05 04:11:19;;;;;;;24.33;4.30;;;;;;;11.57;100.00;101274.97;5069960;28;20045;-74
2023/01/05 04:13:46;;;;;;;17.77;3.13;;;;;;;11.55;100.00;101282.91;5080265;28;20045;-73
2023/01/05 04:16:12;;;;;;;9.60;3.10;;;;;;;11.47;100.00;101284.84;5076065;28;20501;-73
2023/01/05 04:18:39;;;;;;;23.42;4.80;;;;;;;11.49;100.00;101288.03;5069534;28;20051;-74
2023/01/05 04:21:06;;;;;;;32.22;5.70;;;;;;;11.54;100.00;101287.63;5071256;28;20076;-74
2023/01/05 04:23:33;;;;;;;21.65;4.57;;;;;;;11.34;100.00;101291.13;5069491;28;20067;-75
2023/01/05 04:26:01;;;;;;;30.17;3.53;;;;;;;11.39;100.00;101287.97;5069255;28;20044;-74
2023/01/05 04:28:27;;;;;;;22.85;4.55;;;;;;;11.34;100.00;101291.91;5078132;28;20040;-73
2023/01/05 04:30:55;;;;;;;28.10;4.20;;;;;;;11.42;100.00;101298.28;5070897;28;20074;-73
2023/01/05 04:33:24;;;;;;;18.00;2.78;;;;;;;11.34;100.00;101291.13;5068142;28;20048;-74
2023/01/05 04:35:50;;;;;;;26.88;6.50;;;;;;;11.43;100.00;101292.34;5071442;28;20062;-72
2023/01/05 04:38:17;;;;;;;34.85;6.72;;;;;;;11.39;100.00;101282.41;5068806;28;20044;-72
2023/01/05 04:40:48;;;;;;;26.70;6.05;;;;;;;11.35;100.00;101293.50;5069297;28;20102;-72
2023/01/05 04:43:15;;;;;;;13.98;3.85;;;;;;;11.25;100.00;101294.25;5073708;28;20041;-73
2023/01/05 04:45:41;;;;;;;16.50;3.17;;;;;;;11.27;100.00;101289.09;5069309;28;20061;-74
2023/01/05 04:48:08;;;;;;;23.42;2.97;;;;;;;11.30;100.00;101280.00;5069546;28;20052;-73
2023/01/05 04:50:35;;;;;;;21.40;4.50;;;;;;;11.35;100.00;101287.16;5069960;28;20056;-73
2023/01/05 04:53:01;;;;;;;18.27;4.32;;;;;;;11.32;100.00;101296.25;5067219;28;20508;-72
2023/01/05 04:55:28;;;;;;;23.88;5.40;;;;;;;11.27;100.00;101297.41;5079187;28;20058;-74
2023/01/05 04:57:54;;;;;;;17.58;4.43;;;;;;;11.36;100.00;101297.84;5067149;28;20051;-73
2023/01/05 05:00:21;;;;;;;20.25;6.25;;;;;;;11.34;100.00;101291.91;5077765;28;20046;-73
2023/01/05 05:02:47;;;;;;;28.55;4.97;;;;;;;11.42;100.00;101303.81;5069305;28;20047;-73
2023/01/05 05:05:14;;;;;;;16.13;2.03;;;;;;;11.32;100.00;101299.00;5067127;28;20080;-74
2023/01/05 05:07:41;;;;;;;19.83;5.57;;;;;;;11.25;100.00;101290.66;5070042;28;20158;-74
2023/01/05 05:10:08;;;;;;;30.30;6.50;;;;;;;11.33;100.00;101293.09;5074087;28;20056;-73
2023/01/05 05:12:34;;;;;;;22.73;3.95;;;;;;;11.22;100.00;101299.75;5068041;28;20048;-73
2023/01/05 05:15:00;;;;;;;8.20;2.30;;;;;;;11.21;100.00;101304.53;5068925;28;20044;-74
2023/01/05 05:17:27;;;;;;;16.60;3.72;;;;;;;11.28;100.00;101320.38;5069006;28;20490;-72
2023/01/05 05:19:54;;;;;;;29.38;5.25;;;;;;;11.23;100.00;101321.53;5068246;28;20576;-72
2023/01/05 05:22:20;;;;;;;18.67;3.90;;;;;;;11.29;100.00;101328.28;5073911;28;20063;-73
2023/01/05 05:24:47;;;;;;;14.68;3.30;;;;;;;11.28;100.00;101326.72;5069142;28;20056;-73
2023/01/05 05:27:13;;;;;;;32.45;6.43;;;;;;;11.35;100.00;101334.25;5076957;28;20048;-74
2023/01/05 05:29:40;;;;;;;34.95;6.40;;;;;;;11.35;100.00;101332.28;5068816;28;20134;-72
2023/01/05 05:32:06;;;;;;;14.48;3.88;;;;;;;11.29;100.00;101342.16;5068598;28;20422;-74
2023/01/05 05:34:33;;;;;;;15.35;4.15;;;;;;;11.25;100.00;101348.84;5069664;28;20063;-72
2023/01/05 05:36:59;;;;;;;16.42;2.10;;;;;;;11.29;100.00;101350.47;5067986;28;20037;-74
2023/01/05 05:39:26;;;;;;;28.98;5.75;;;;;;;11.27;100.00;101352.03;5074157;28;20093;-73
2023/01/05 05:41:52;;;;;;;26.85;5.85;;;;;;;11.32;100.00;101352.47;5077111;28;20040;-74
2023/01/05 05:44:19;;;;;;;25.73;4.35;;;;;;;11.33;100.00;101361.53;5076550;28;20047;-73
2023/01/05 05:46:45;;;;;;;9.77;3.83;;;;;;;11.30;100.00;101365.13;5067506;28;20086;-72
2023/01/05 05:49:12;;;;;;;25.48;6.40;;;;;;;11.30;100.00;101360.34;5070522;28;20051;-74
2023/01/05 05:51:39;;;;;;;16.70;4.07;;;;;;;11.33;100.00;101367.91;5068230;28;20054;-74
2023/01/05 05:54:05;;;;;;;15.85;3.67;;;;;;;11.26;100.00;101364.28;5071754;28;20040;-74
2023/01/05 05:56:32;;;;;;;15.32;4.07;;;;;;;11.32;100.00;101371.84;5068150;28;20416;-74
2023/01/05 05:58:58;;;;;;;26.58;4.88;;;;;;;11.36;100.00;101369.91;5082612;28;20040;-75
2023/01/05 06:01:27;;;;;;;35.70;5.90;;;;;;;11.38;100.00;101380.59;5079531;28;20049;-72
2023/01/05 06:03:54;;;;;;;30.88;6.20;;;;;;;11.36;100.00;101380.16;5076160;28;20040;-73
2023/01/05 06:06:20;;;;;;;15.25;3.72;;;;;;;11.23;100.00;101384.44;5080995;28;20565;-72
2023/01/05 06:08:47;;;;;;;24.98;3.53;;;;;;;11.27;100.00;101388.81;5068043;28;20049;-74
2023/01/05 06:11:13;;;;;;;22.73;4.50;;;;;;;11.29;100.00;101394.78;5067696;28;20525;-73
2023/01/05 06:13:41;;;;;;;25.98;4.32;;;;;;;11.28;100.00;101392.41;5067428;28;20438;-72
2023/01/05 06:16:07;;;;;;;7.13;1.85;;;;;;;11.19;100.00;101395.50;5071389;28;20036;-73
2023/01/05 06:18:34;;;;;;;4.47;1.92;;;;;;;11.12;100.00;101389.09;5069585;28;20052;-74
2023/01/05 06:21:00;;;;;;;22.92;5.03;;;;;;;11.16;100.00;101389.94;5070589;28;20040;-73
2023/01/05 06:23:27;;;;;;;6.72;1.52;;;;;;;11.14;100.00;101404.16;5069413;28;20068;-73
2023/01/05 06:25:54;;;;;;;22.75;4.90;;;;;;;11.16;100.00;101401.00;5068253;28;20059;-74
2023/01/05 06:28:20;;;;;;;21.77;4.80;;;;;;;11.17;100.00;101399.84;5068401;28;20046;-72
2023/01/05 06:30:47;;;;;;;31.42;6.20;;;;;;;11.11;100.00;101401.38;5067844;28;20318;-73
2023/01/05 06:33:13;;;;;;;22.70;4.30;;;;;;;11.03;100.00;101408.81;5075528;28;20395;-73
2023/01/05 06:35:40;;;;;;;23.98;5.00;;;;;;;11.09;100.00;101406.50;5072480;28;20063;-74
2023/01/05 06:38:06;;;;;;;20.38;3.72;;;;;;;11.05;100.00;101409.25;5076404;28;20054;-73
2023/01/05 06:40:33;;;;;;;32.67;5.70;;;;;;;11.08;100.00;101418.75;5075110;28;20325;-74
2023/01/05 06:42:59;;;;;;;15.27;4.03;;;;;;;10.99;100.00;101421.03;5071495;28;20047;-73
2023/01/05 06:45:26;;;;;;;26.20;6.35;;;;;;;10.97;100.00;101421.44;5072736;28;20048;-73
2023/01/05 06:47:53;;;;;;;2.38;0.85;;;;;;;10.94;100.00;101419.44;5071456;28;20095;-74
2023/01/05 06:50:19;;;;;;;26.75;6.22;;;;;;;10.96;100.00;101419.03;5071876;28;20043;-73
2023/01/05 06:52:46;;;;;;;32.33;7.00;;;;;;;10.95;100.00;101426.56;5070232;28;20054;-75
2023/01/05 06:55:13;;;;;;;11.98;3.40;;;;;;;10.92;100.00;101421.00;5072097;28;20136;-73
2023/01/05 06:57:39;;;;;;;17.00;5.43;;;;;;;10.86;100.00;101430.84;5069794;28;20075;-73
2023/01/05 07:00:09;;;;;;;38.10;6.85;;;;;;;11.00;100.00;101426.22;5071461;28;20048;-73
2023/01/05 07:02:35;;;;;;;32.63;6.93;;;;;;;10.92;100.00;101429.28;5070554;28;20131;-73
2023/01/05 07:05:02;;;;;;;24.65;5.65;;;;;;;10.96;100.00;101430.13;5074946;28;20047;-74
2023/01/05 07:07:28;;;;;;;18.77;4.75;;;;;;;10.91;100.00;101436.03;5081211;28;20048;-72
2023/01/05 07:09:55;;;;;;;13.00;4.32;;;;;;;10.89;100.00;101446.66;5069969;28;20127;-74
2023/01/05 07:12:22;;;;;;;14.38;3.55;;;;;;;10.90;100.00;101440.75;5073629;28;20407;-74
2023/01/05 07:14:48;;;;;;;29.60;8.77;;;;;;;10.99;100.00;101449.53;5072908;28;20051;-75
2023/01/05 07:17:22;;;;;;;33.72;7.85;;;;;;;10.98;100.00;101449.94;5075007;28;20041;-74
2023/01/05 07:19:49;;;;;;;25.25;5.07;;;;;;;10.97;100.00;101451.88;5075961;28;20055;-75
2023/01/05 07:22:15;;;;;;;26.55;7.43;;;;;;;10.99;100.00;101445.97;5085950;28;20110;-74
2023/01/05 07:24:42;;;;;;;21.50;6.35;;;;;;;10.96;100.00;101441.19;5080793;28;20051;-74
2023/01/05 07:27:08;;;;;;;30.60;8.57;;;;;;;10.98;100.00;101461.81;5085099;28;20036;-72
2023/01/05 07:29:36;;;;;;;11.98;3.47;;;;;;;10.93;100.00;101458.59;5072206;28;20095;-72
2023/01/05 07:32:02;;;;;;;7.07;2.72;;;;;;;10.93;100.00;101453.06;5080969;28;20051;-73
2023/01/05 07:34:29;;;;;;;27.90;9.95;;;;;;;11.00;100.00;101453.13;5077162;28;20056;-73
2023/01/05 07:36:56;;;;;;;25.20;6.10;;;;;;;11.00;100.00;101470.50;5074439;28;20087;-72
2023/01/05 07:39:22;;;;;;;28.27;8.90;;;;;;;10.90;100.00;101470.44;5073931;28;20044;-72
2023/01/05 07:41:49;;;;;;;14.20;5.25;;;;;;;11.01;100.00;101471.31;5070713;28;20127;-75
2023/01/05 07:44:17;;;;;;;25.98;6.63;;;;;;;10.97;100.00;101470.50;5068723;28;20052;-75
2023/01/05 07:46:43;;;;;;;26.38;6.95;;;;;;;11.01;100.00;101476.84;5071306;28;20567;-72
2023/01/05 07:49:10;;;;;;;15.60;4.07;;;;;;;11.00;100.00;101478.81;5074279;28;20415;-75
2023/01/05 07:51:36;;;;;;;15.55;3.20;;;;;;;10.97;100.00;101482.34;5087535;28;20055;-73
2023/01/05 07:54:03;;;;;;;31.13;7.70;;;;;;;11.05;100.00;101483.22;5090404;28;20044;-72
2023/01/05 07:56:29;;;;;;;34.38;6.88;;;;;;;11.07;100.00;101489.19;5071625;28;20064;-73
2023/01/05 07:58:56;;;;;;;28.73;8.15;;;;;;;11.07;100.00;101497.50;5075447;28;20539;-75
2023/01/05 08:01:22;;;;;;;30.05;7.35;;;;;;;11.04;100.00;101492.72;5078492;28;20067;-72
2023/01/05 08:03:49;;;;;;;17.58;5.05;;;;;;;10.98;100.00;101494.22;5077747;28;20054;-72
2023/01/05 08:06:18;;;;;;;26.10;4.93;;;;;;;10.99;100.00;101493.84;5070931;28;20063;-75
2023/01/05 08:08:45;;;;;;;24.50;6.38;;;;;;;11.09;100.00;101495.13;5070231;28;20052;-73
2023/01/05 08:11:17;;;;;;;30.98;6.10;;;;;;;11.04;100.00;101503.78;5070603;28;20478;-74
2023/01/05 08:13:59;;;;;;;26.00;6.72;;;;;;;11.16;100.00;101503.50;5070123;28;20146;-75
2023/01/05 08:16:27;;;;;;;35.15;7.10;;;;;;;11.19;100.00;101511.03;5070995;28;20052;-73
2023/01/05 08:18:53;;;;;;;32.20;5.97;;;;;;;11.19;100.00;101520.16;5070954;28;20059;-75
2023/01/05 08:21:20;;;;;;;23.83;5.50;;;;;;;11.07;100.00;101509.34;5069338;28;20677;-73
2023/01/05 08:23:48;;;;;;;28.00;7.18;;;;;;;11.12;100.00;101505.44;5068291;28;20060;-73
2023/01/05 08:26:17;;;;;;;37.78;7.55;;;;;;;11.22;100.00;101510.28;5073274;28;20414;-76
2023/01/05 08:28:44;;;;;;;12.80;3.95;;;;;;;11.21;100.00;101508.69;5069208;28;20730;-75
2023/01/05 08:31:15;;;;;;;36.38;7.50;;;;;;;11.33;100.00;101505.63;5077894;28;20048;-75
2023/01/05 08:33:42;;;;;;;34.80;6.22;;;;;;;11.33;100.00;101508.38;5078548;28;20055;-76
2023/01/05 08:36:11;;;;;;;31.85;4.90;;;;;;;11.30;100.00;101517.50;5075207;28;20054;-76
2023/01/05 08:38:38;;;;;;;36.83;6.57;;;;;;;11.39;100.00;101529.84;5090194;28;20052;-74
2023/01/05 08:41:04;;;;;;;5.22;1.63;;;;;;;11.31;100.00;101533.69;5074686;28;20048;-75
2023/01/05 08:43:31;;;;;;;13.00;3.20;;;;;;;11.28;100.00;101528.16;5070290;28;20083;-74
2023/01/05 08:45:57;;;;;;;26.27;4.82;;;;;;;11.35;100.00;101528.22;5068960;28;20044;-74
2023/01/05 08:48:24;;;;;;;19.65;4.13;;;;;;;11.30;100.00;101532.13;5068469;28;20044;-73
2023/01/05 08:50:50;;;;;;;40.67;8.27;;;;;;;11.43;100.00;101535.38;5069091;28;20048;-73
2023/01/05 08:53:17;;;;;;;40.55;7.60;;;;;;;11.45;100.00;101544.94;5082277;28;20048;-72
2023/01/05 08:55:43;;;;;;;21.70;4.85;;;;;;;11.27;100.00;101546.72;5074965;28;20040;-73
2023/01/05 08:58:09;;;;;;;17.15;3.60;;;;;;;11.38;100.00;101539.34;5072696;28;20135;-75
2023/01/05 09:00:36;;;;;;;14.02;4.57;;;;;;;11.44;100.00;101551.63;5069821;28;20445;-74
2023/01/05 09:03:03;;;;;;;26.92;4.32;;;;;;;11.42;100.00;101551.25;5073606;28;20054;-74
2023/01/05 09:05:29;;;;;;;16.60;3.95;;;;;;;11.40;100.00;101558.31;5068597;28;20079;-73
2023/01/05 09:07:56;;;;;;;34.50;6.65;;;;;;;11.46;100.00;101565.13;5068330;28;20055;-74
2023/01/05 09:10:22;;;;;;;41.90;7.15;;;;;;;11.46;100.00;101559.56;5084206;28;20051;-74
2023/01/05 09:12:48;;;;;;;15.68;3.90;;;;;;;11.41;100.00;101568.25;5068457;28;20048;-74
2023/01/05 09:15:15;;;;;;;19.80;3.47;;;;;;;11.48;100.00;101563.53;5069481;28;20056;-72
2023/01/05 09:17:41;;;;;;;36.70;6.75;;;;;;;11.58;100.00;101576.69;5050235;28;20433;-73
2023/01/05 09:20:08;;;;;;;19.05;5.20;;;;;;;11.47;100.00;101578.59;5055127;28;20052;-75
2023/01/05 09:22:35;;;;;;;23.80;4.47;;;;;;;11.42;100.00;101567.88;5051751;28;20060;-75
2023/01/05 09:25:03;;;;;;;18.05;3.65;;;;;;;11.48;100.00;101576.63;5062064;28;20753;-74
2023/01/05 09:27:30;;;;;;;22.23;5.00;;;;;;;11.47;100.00;101580.59;5047169;28;20126;-73
2023/01/05 09:29:56;;;;;;;16.73;3.53;;;;;;;11.48;100.00;101584.94;5053621;28;20060;-73
2023/01/05 09:32:23;;;;;;;16.25;3.95;;;;;;;11.54;100.00;101588.97;5047145;28;20087;-75
2023/01/05 09:34:49;;;;;;;18.08;4.38;;;;;;;11.48;100.00;101582.16;5048771;28;20694;-74
2023/01/05 09:37:16;;;;;;;38.97;6.57;;;;;;;11.61;100.00;101589.81;5053494;28;20056;-74
2023/01/05 09:39:43;;;;;;;15.52;3.63;;;;;;;11.59;100.00;101602.44;5055928;28;20056;-72
2023/01/05 09:42:19;;;;;;;5.35;1.83;;;;;;;11.61;100.00;101602.88;5052455;28;20044;-73
2023/01/05 09:44:48;;;;;;;26.38;5.05;;;;;;;11.60;100.00;101599.28;5048698;28;20052;-74
2023/01/05 09:47:31;;;;;;;34.85;6.68;;;;;;;11.69;100.00;101599.00;5044214;28;20835;-73
2023/01/05 09:49:58;;;;;;;31.52;6.45;;;;;;;11.67;100.00;101609.66;5058681;28;20040;-73
2023/01/05 09:52:25;;;;;;;35.90;6.78;;;;;;;11.71;100.00;101610.53;5051281;28;20040;-73
2023/01/05 09:54:52;;;;;;;6.22;2.53;;;;;;;11.65;100.00;101625.91;5052357;28;20063;-74
2023/01/05 09:57:23;;;;;;;6.18;1.50;;;;;;;11.61;100.00;101623.09;5050312;28;20773;-75
2023/01/05 09:59:52;;;;;;;30.00;5.38;;;;;;;11.74;100.00;101629.16;5044531;28;20052;-73
2023/01/05 10:02:35;;;;;;;46.65;7.50;;;;;;;11.76;100.00;101629.56;5046971;28;20182;-73
2023/01/05 10:05:04;;;;;;;19.08;3.38;;;;;;;11.75;100.00;101622.44;5051998;28;20048;-75
2023/01/05 10:08:10;;;;;;;14.23;3.83;;;;;;;11.80;100.00;101630.38;5041629;28;20062;-73
2023/01/05 10:13:01;;;;;;;30.42;5.40;;;;;;;11.87;100.00;101633.22;5017267;28;20057;-73
2023/01/05 10:14:14;;;;;;;38.75;6.28;;;;;;;11.77;100.00;101631.16;5057946;28;20047;-74
2023/01/05 10:16:43;;;;;;;10.57;2.35;;;;;;;11.92;100.00;101632.88;5039122;28;20090;-74
2023/01/05 10:19:15;;;;;;;11.88;3.08;;;;;;;11.89;100.00;101633.63;5051870;28;20811;-73
2023/01/05 10:21:50;;;;;;;34.80;6.07;;;;;;;11.92;100.00;101643.97;5049005;28;20044;-73
2023/01/05 10:24:20;;;;;;;;;;;;;;;11.89;100.00;101642.75;5041291;28;21199;-72
2023/01/05 10:27:01;;;;;;;37.30;6.68;;;;;;;11.93;100.00;101643.59;5059888;28;19937;-73
2023/01/05 10:29:52;;;;;;;37.67;6.35;;;;;;;11.98;100.00;101642.44;5043420;28;20861;-74
2023/01/05 10:32:35;;;;;;;43.30;6.65;;;;;;;11.98;100.00;101643.22;5046587;28;20052;-73
2023/01/05 10:35:33;;;;;;;;;;;;;;;12.00;100.00;101646.41;5046832;28;20693;-72
2023/01/05 10:38:31;;;;;;;15.05;4.53;;;;;;;12.03;100.00;101642.06;5045687;28;20480;-72
2023/01/05 10:41:07;;;;;;;13.85;3.08;;;;;;;12.04;100.00;101649.19;5047699;28;20695;-76
2023/01/05 10:43:52;;;;;;;37.83;6.72;;;;;;;12.05;100.00;101645.25;5044815;28;20831;-74
2023/01/05 10:46:20;;;;;;;35.47;6.93;;;;;;;12.12;100.00;101648.09;5045432;28;20160;-74
2023/01/05 10:49:08;;;;;;;26.83;5.47;;;;;;;12.09;100.00;101641.31;5046661;28;20105;-74
2023/01/05 10:51:35;;;;;;;27.83;6.43;;;;;;;12.05;100.00;101645.25;5049610;28;20051;-74
2023/01/05 10:54:03;;;;;;;27.10;6.22;;;;;;;12.16;100.00;101655.25;5049788;28;20040;-73
2023/01/05 10:56:31;;;;;;;12.75;3.47;;;;;;;12.13;100.00;101664.34;5039953;28;20055;-74
2023/01/05 10:59:14;;;;;;;37.83;7.28;;;;;;;12.27;100.00;101664.44;5054317;28;20822;-73
2023/01/05 11:01:48;;;;;;;25.25;4.40;;;;;;;12.17;100.00;101653.25;5046152;28;20533;-76
2023/01/05 11:04:23;;;;;;;26.50;4.03;;;;;;;12.21;100.00;101659.63;5035973;28;20055;-75
2023/01/05 11:07:05;;;;;;;;;;;;;;;12.18;100.00;101660.38;5054802;28;20044;-73
2023/01/05 11:09:37;;;;;;;31.20;7.10;;;;;;;12.30;100.00;101660.91;5059564;28;20072;-72
2023/01/05 11:12:04;;;;;;;32.00;7.57;;;;;;;12.25;100.00;101663.25;5051823;28;20044;-76
2023/01/05 11:14:41;;;;;;;32.45;5.88;;;;;;;12.31;100.00;101659.72;5045673;28;20822;-76
2023/01/05 11:17:23;;;;;;;31.20;6.25;;;;;;;12.30;100.00;101662.88;5048790;28;20789;-77
2023/01/05 11:19:55;;;;;;;11.07;3.00;;;;;;;12.30;100.00;101660.91;5058627;28;20047;-75
2023/01/05 11:22:34;;;;;;;14.13;4.22;;;;;;;12.25;100.00;101661.25;5057829;28;20193;-76
2023/01/05 11:25:26;;;;;;;11.07;3.38;;;;;;;12.39;100.00;101660.56;5060444;28;20059;-75
2023/01/05 11:28:16;;;;;;;27.83;5.80;;;;;;;12.47;100.00;101662.19;5047403;28;20049;-75
2023/01/05 11:31:03;;;;;;;40.67;6.13;;;;;;;12.42;100.00;101657.78;5054766;28;20044;-75
2023/01/05 11:33:34;;;;;;;13.20;3.38;;;;;;;12.53;100.00;101664.19;5052304;28;20048;-73
2023/01/05 11:36:03;;;;;;;34.55;6.68;;;;;;;12.51;100.00;101649.13;5051533;28;20148;-73
2023/01/05 11:38:30;;;;;;;15.75;4.43;;;;;;;12.60;100.00;101669.81;5053616;28;20044;-75
2023/01/05 11:40:59;;;;;;;10.18;3.03;;;;;;;12.48;100.00;101680.44;5057591;28;20056;-73
2023/01/05 11:43:28;;;;;;;18.75;4.07;;;;;;;12.57;100.00;101661.47;5048751;28;20040;-74
2023/01/05 11:46:00;;;;;;;23.08;4.07;;;;;;;12.54;100.00;101657.47;5058537;28;20048;-75
2023/01/05 11:48:31;;;;;;;30.60;5.72;;;;;;;12.56;100.00;101657.09;5054044;28;20049;-75
2023/01/05 11:50:58;;;;;;;23.50;4.75;;;;;;;12.52;100.00;101648.72;5058454;28;20514;-76
2023/01/05 11:53:34;;;;;;;15.88;3.85;;;;;;;12.60;100.00;101658.72;5055096;28;20048;-75